Time;durP1;ratioP1;P1;durP2;ratioP2;P2;SDS_P1;SDS_P2;PMS_P1;PMS_P2;Temp;Humidity;BMP_temperature;BMP_pressure;BME280_temperature;BME280_humidity;BME280_pressure;Samples;Min_cycle;Max_cycle;Signal;HPM_P1;HPM_P2
2023/03/17 00:01:09;;;;;;;8.57;3.60;;;7.90;99.90;;;;;;5061978;28;20527;-74
2023/03/17 00:03:43;;;;;;;7.60;3.33;;;7.80;99.90;;;;;;5060198;28;20516;-74
2023/03/17 00:06:24;;;;;;;10.68;4.28;;;7.80;99.90;;;;;;5042581;28;20507;-74
2023/03/17 00:08:50;;;;;;;9.10;3.40;;;7.80;99.90;;;;;;5061123;28;20040;-74
2023/03/17 00:11:17;;;;;;;11.48;3.55;;;7.80;99.90;;;;;;5043388;28;20048;-75
2023/03/17 00:13:47;;;;;;;8.90;3.65;;;7.90;99.90;;;;;;5061006;28;20052;-74
2023/03/17 00:16:25;;;;;;;10.97;3.63;;;7.80;99.90;;;;;;5044133;28;20036;-73
2023/03/17 00:18:52;;;;;;;6.32;3.08;;;7.90;99.90;;;;;;5087841;28;20060;-74
2023/03/17 00:21:27;;;;;;;9.73;4.03;;;7.90;99.90;;;;;;5043915;28;20562;-75
2023/03/17 00:23:54;;;;;;;10.98;4.68;;;7.90;99.90;;;;;;5060337;28;20083;-75
2023/03/17 00:26:20;;;;;;;7.85;3.20;;;7.90;99.90;;;;;;5060012;28;20033;-74
2023/03/17 00:28:46;;;;;;;11.77;3.42;;;7.90;99.90;;;;;;5059439;28;20125;-75
2023/03/17 00:31:20;;;;;;;8.75;3.38;;;7.80;99.90;;;;;;5060413;28;20513;-75
2023/03/17 00:33:48;;;;;;;10.90;3.50;;;7.80;99.90;;;;;;5052844;28;20067;-73
2023/03/17 00:36:34;;;;;;;7.20;3.33;;;7.90;99.90;;;;;;5062592;28;20043;-74
2023/03/17 00:39:00;;;;;;;7.20;3.10;;;7.80;99.90;;;;;;5062425;28;20055;-74
2023/03/17 00:41:26;;;;;;;7.93;3.50;;;7.80;99.90;;;;;;5060941;28;20041;-74
2023/03/17 00:43:52;;;;;;;8.10;3.70;;;7.90;99.90;;;;;;5043062;28;20051;-75
2023/03/17 00:46:20;;;;;;;7.30;3.25;;;7.90;99.90;;;;;;5043166;28;20044;-75
2023/03/17 00:48:47;;;;;;;8.30;3.20;;;7.80;99.90;;;;;;5061796;28;20072;-76
2023/03/17 00:51:16;;;;;;;7.32;3.15;;;7.80;99.90;;;;;;5099098;27;20045;-73
2023/03/17 00:53:42;;;;;;;7.90;3.65;;;7.80;99.90;;;;;;5065502;28;20123;-75
2023/03/17 00:56:14;;;;;;;8.38;3.25;;;8.30;99.90;;;;;;5049285;28;20531;-75
2023/03/17 00:58:40;;;;;;;9.68;3.25;;;7.80;99.90;;;;;;5063989;28;20049;-74
2023/03/17 01:01:07;;;;;;;7.90;3.47;;;7.80;99.90;;;;;;5045605;28;20478;-74
2023/03/17 01:03:33;;;;;;;8.05;3.75;;;7.80;99.90;;;;;;5064602;28;20037;-74
2023/03/17 01:06:01;;;;;;;6.80;3.33;;;7.80;99.90;;;;;;5066147;28;20143;-75
2023/03/17 01:08:29;;;;;;;7.32;2.92;;;7.80;99.90;;;;;;5065976;28;20040;-75
2023/03/17 01:10:55;;;;;;;6.53;3.15;;;7.80;99.90;;;;;;5066016;28;20040;-75
2023/03/17 01:13:21;;;;;;;10.25;3.80;;;7.80;99.90;;;;;;5063556;28;20052;-74
2023/03/17 01:15:50;;;;;;;7.47;3.20;;;7.80;99.90;;;;;;5057967;28;20394;-74
2023/03/17 01:18:20;;;;;;;6.88;3.55;;;7.80;99.90;;;;;;5064492;28;20163;-75
2023/03/17 01:20:46;;;;;;;8.43;3.45;;;7.80;99.90;;;;;;5047049;28;20055;-74
2023/03/17 01:23:12;;;;;;;5.93;3.03;;;7.80;99.90;;;;;;5065572;28;20044;-74
2023/03/17 01:25:41;;;;;;;6.18;2.63;;;8.40;99.90;;;;;;5060422;28;20064;-74
2023/03/17 01:28:11;;;;;;;9.25;3.47;;;8.00;99.90;;;;;;5062775;28;20053;-75
2023/03/17 01:30:39;;;;;;;6.82;2.90;;;7.90;99.90;;;;;;5063952;28;20048;-74
2023/03/17 01:33:07;;;;;;;9.10;3.50;;;7.90;99.90;;;;;;5063419;28;20052;-74
2023/03/17 01:35:34;;;;;;;7.47;3.10;;;7.90;99.90;;;;;;5062846;28;20256;-74
2023/03/17 01:38:00;;;;;;;6.13;2.80;;;7.90;99.90;;;;;;5043425;28;20045;-75
2023/03/17 01:40:30;;;;;;;10.82;3.10;;;7.90;99.90;;;;;;5059959;28;20049;-74
2023/03/17 01:43:07;;;;;;;9.65;3.53;;;7.90;99.90;;;;;;5061191;28;20058;-74
2023/03/17 01:46:10;;;;;;;7.40;2.95;;;7.90;99.90;;;;;;5063196;28;20102;-74
2023/03/17 01:48:54;;;;;;;8.48;2.95;;;7.90;99.90;;;;;;5063377;28;20045;-75
2023/03/17 01:51:57;;;;;;;8.88;3.17;;;7.80;99.90;;;;;;5062883;28;20063;-74
2023/03/17 01:54:52;;;;;;;6.38;3.08;;;7.90;99.90;;;;;;5045884;28;20079;-75
2023/03/17 01:57:30;;;;;;;7.68;3.08;;;7.80;99.90;;;;;;5044196;28;20131;-74
2023/03/17 02:00:08;;;;;;;7.20;3.58;;;7.90;99.90;;;;;;5063479;28;20082;-74
2023/03/17 02:02:36;;;;;;;8.15;3.25;;;7.80;99.90;;;;;;5096910;28;20048;-75
2023/03/17 02:05:09;;;;;;;6.63;2.78;;;7.80;99.90;;;;;;5047366;28;20444;-74
2023/03/17 02:07:35;;;;;;;8.45;2.70;;;7.80;99.90;;;;;;5062546;28;20043;-74
2023/03/17 02:10:03;;;;;;;6.60;2.80;;;7.90;99.90;;;;;;5061094;28;20436;-75
2023/03/17 02:12:29;;;;;;;9.90;3.60;;;7.80;99.90;;;;;;5094599;28;20122;-74
2023/03/17 02:14:55;;;;;;;8.68;3.40;;;7.80;99.90;;;;;;5063439;28;20094;-75
2023/03/17 02:17:22;;;;;;;6.25;2.97;;;7.80;99.90;;;;;;5047014;28;20120;-75
2023/03/17 02:19:48;;;;;;;7.20;3.45;;;7.80;99.90;;;;;;5058994;28;20374;-74
2023/03/17 02:22:16;;;;;;;7.45;3.13;;;7.80;99.90;;;;;;5062214;28;20102;-75
2023/03/17 02:24:50;;;;;;;6.88;3.22;;;7.80;99.90;;;;;;5063645;28;20044;-75
2023/03/17 02:27:26;;;;;;;5.93;3.00;;;7.80;99.90;;;;;;5063329;28;20580;-75
2023/03/17 02:29:52;;;;;;;8.75;3.50;;;7.70;99.90;;;;;;5062480;28;20469;-74
2023/03/17 02:32:18;;;;;;;6.82;3.47;;;7.70;99.90;;;;;;5063451;28;20040;-74
2023/03/17 02:34:46;;;;;;;7.22;3.03;;;7.70;99.90;;;;;;5060185;28;20044;-75
2023/03/17 02:37:12;;;;;;;8.60;3.83;;;7.70;99.90;;;;;;5061870;28;20040;-74
2023/03/17 02:39:38;;;;;;;9.50;3.00;;;7.70;99.90;;;;;;5046127;28;20402;-75
2023/03/17 02:42:05;;;;;;;7.68;3.30;;;7.70;99.90;;;;;;5061355;28;20059;-75
2023/03/17 02:44:31;;;;;;;8.05;3.20;;;7.70;99.90;;;;;;5062928;28;20049;-74
2023/03/17 02:46:57;;;;;;;8.45;3.75;;;7.70;99.90;;;;;;5062928;28;20743;-75
2023/03/17 02:49:23;;;;;;;7.38;3.63;;;7.70;99.90;;;;;;5047005;28;20043;-74
2023/03/17 02:51:50;;;;;;;10.15;3.70;;;7.70;99.90;;;;;;5063129;28;20111;-74
2023/03/17 02:54:15;;;;;;;7.28;3.47;;;7.70;99.90;;;;;;5063560;28;20413;-74
2023/03/17 02:56:41;;;;;;;6.93;3.10;;;7.60;99.90;;;;;;5061932;28;20044;-74
2023/03/17 02:59:07;;;;;;;7.07;2.72;;;7.70;99.90;;;;;;5062454;28;20041;-73
2023/03/17 03:01:34;;;;;;;6.45;3.28;;;7.60;99.90;;;;;;5062775;28;20447;-74
2023/03/17 03:04:00;;;;;;;7.13;3.13;;;7.70;99.90;;;;;;5063378;28;20032;-74
2023/03/17 03:06:25;;;;;;;7.95;3.50;;;7.60;99.90;;;;;;5059513;28;20071;-74
2023/03/17 03:08:52;;;;;;;8.07;3.20;;;7.70;99.90;;;;;;5061535;28;20074;-73
2023/03/17 03:11:18;;;;;;;8.48;3.22;;;7.60;99.90;;;;;;5055917;28;20040;-74
2023/03/17 03:13:45;;;;;;;8.30;3.03;;;7.60;99.90;;;;;;5055456;28;20733;-74
2023/03/17 03:16:11;;;;;;;7.35;2.95;;;7.60;99.90;;;;;;5061161;28;20148;-73
2023/03/17 03:18:37;;;;;;;7.63;3.13;;;7.60;99.90;;;;;;5055914;28;20040;-74
2023/03/17 03:21:03;;;;;;;8.23;3.35;;;7.90;99.90;;;;;;5040434;28;20460;-74
2023/03/17 03:23:29;;;;;;;6.65;3.03;;;7.60;99.90;;;;;;5051417;28;20379;-74
2023/03/17 03:25:56;;;;;;;6.97;3.20;;;7.60;99.90;;;;;;5055908;28;20133;-74
2023/03/17 03:28:22;;;;;;;7.15;3.10;;;7.60;99.90;;;;;;5057891;28;20461;-74
2023/03/17 03:30:48;;;;;;;8.23;3.55;;;7.60;99.90;;;;;;5051806;28;20041;-74
2023/03/17 03:33:17;;;;;;;8.35;3.33;;;7.60;99.90;;;;;;5058592;28;20049;-74
2023/03/17 03:35:46;;;;;;;8.70;3.22;;;7.70;99.90;;;;;;5056277;28;20044;-74
2023/03/17 03:38:12;;;;;;;7.00;3.30;;;7.60;99.90;;;;;;5078833;28;20102;-74
2023/03/17 03:40:38;;;;;;;10.15;3.65;;;7.60;99.90;;;;;;5047096;28;20053;-74
2023/03/17 03:43:05;;;;;;;8.95;3.58;;;7.60;99.90;;;;;;5047625;28;20104;-73
2023/03/17 03:45:31;;;;;;;8.82;3.35;;;7.60;99.90;;;;;;5048411;28;20755;-74
2023/03/17 03:47:57;;;;;;;7.85;3.08;;;7.60;99.90;;;;;;5040462;28;21222;-74
2023/03/17 03:50:24;;;;;;;8.85;3.42;;;7.60;99.90;;;;;;5075689;28;20119;-75
2023/03/17 03:52:50;;;;;;;6.30;3.08;;;7.60;99.90;;;;;;5045914;28;20056;-73
2023/03/17 03:55:16;;;;;;;6.20;3.15;;;7.60;99.90;;;;;;5052685;28;20049;-74
2023/03/17 03:57:42;;;;;;;12.57;3.28;;;7.60;99.90;;;;;;5047146;28;20439;-74
2023/03/17 04:00:08;;;;;;;7.60;3.22;;;7.60;99.90;;;;;;5056983;28;20044;-75
2023/03/17 04:02:34;;;;;;;9.30;3.25;;;7.60;99.90;;;;;;5052988;28;20562;-74
2023/03/17 04:05:00;;;;;;;7.60;3.30;;;7.60;99.90;;;;;;5082856;28;20071;-74
2023/03/17 04:07:26;;;;;;;9.13;3.20;;;7.60;99.90;;;;;;5039596;28;20182;-75
2023/03/17 04:09:52;;;;;;;8.43;3.20;;;7.60;99.90;;;;;;5050040;28;20776;-74
2023/03/17 04:12:18;;;;;;;7.88;3.60;;;7.60;99.90;;;;;;5084841;28;20044;-74
2023/03/17 04:14:46;;;;;;;8.27;3.33;;;7.60;99.90;;;;;;5051311;28;20706;-74
2023/03/17 04:17:15;;;;;;;7.45;2.95;;;7.60;99.90;;;;;;5057103;28;20683;-73
2023/03/17 04:19:41;;;;;;;9.70;3.50;;;7.60;99.90;;;;;;5049829;28;20048;-75
2023/03/17 04:22:09;;;;;;;7.28;3.28;;;7.60;99.90;;;;;;5056858;28;20083;-74
2023/03/17 04:24:35;;;;;;;6.32;3.15;;;7.50;99.90;;;;;;5053583;28;20080;-74
2023/03/17 04:27:02;;;;;;;9.93;3.75;;;7.50;99.90;;;;;;5061509;28;20040;-74
2023/03/17 04:29:28;;;;;;;6.68;3.00;;;7.60;99.90;;;;;;5066567;28;20044;-74
2023/03/17 04:31:54;;;;;;;9.38;3.50;;;7.50;99.90;;;;;;5039472;28;20048;-74
2023/03/17 04:34:20;;;;;;;6.65;3.28;;;7.50;99.90;;;;;;5057562;28;20056;-74
2023/03/17 04:36:46;;;;;;;9.25;3.25;;;7.60;99.90;;;;;;5063612;28;20044;-74
2023/03/17 04:39:13;;;;;;;6.78;3.17;;;7.50;99.90;;;;;;5039091;28;20040;-74
2023/03/17 04:41:39;;;;;;;8.10;2.95;;;7.50;99.90;;;;;;5043424;28;20049;-74
2023/03/17 04:44:05;;;;;;;7.43;3.35;;;7.50;99.90;;;;;;5055145;28;20106;-74
2023/03/17 04:46:32;;;;;;;7.50;3.08;;;7.50;99.90;;;;;;5050232;28;20079;-74
2023/03/17 04:48:58;;;;;;;9.10;3.15;;;7.50;99.90;;;;;;5051889;28;20061;-74
2023/03/17 04:51:25;;;;;;;6.97;3.30;;;7.40;99.90;;;;;;5053349;28;20043;-74
2023/03/17 04:53:51;;;;;;;7.82;3.13;;;7.40;99.90;;;;;;5062440;28;20048;-75
2023/03/17 04:56:17;;;;;;;8.93;3.10;;;7.40;99.90;;;;;;5065138;28;20064;-74
2023/03/17 04:58:46;;;;;;;7.38;3.60;;;7.40;99.90;;;;;;5063839;28;20290;-74
2023/03/17 05:01:12;;;;;;;6.10;2.83;;;7.40;99.90;;;;;;5063094;28;20072;-73
2023/03/17 05:03:37;;;;;;;12.45;3.53;;;7.40;99.90;;;;;;5063179;28;20082;-74
2023/03/17 05:06:04;;;;;;;6.55;2.92;;;7.40;99.90;;;;;;5062280;28;20044;-74
2023/03/17 05:08:30;;;;;;;7.80;3.15;;;7.40;99.90;;;;;;5061443;28;20044;-75
2023/03/17 05:10:57;;;;;;;7.65;3.53;;;7.30;99.90;;;;;;5065169;28;20068;-74
2023/03/17 05:13:24;;;;;;;7.38;3.03;;;7.30;99.90;;;;;;5065102;28;20056;-74
2023/03/17 05:15:51;;;;;;;7.65;3.38;;;7.40;99.90;;;;;;5046248;28;20044;-74
2023/03/17 05:18:20;;;;;;;8.63;3.45;;;7.40;99.90;;;;;;5059976;28;20099;-74
2023/03/17 05:20:46;;;;;;;7.43;3.22;;;7.30;99.90;;;;;;5060536;28;20048;-74
2023/03/17 05:23:12;;;;;;;6.22;2.90;;;7.40;99.90;;;;;;5056412;28;20037;-74
2023/03/17 05:25:39;;;;;;;8.15;3.20;;;7.70;99.90;;;;;;5061702;28;20118;-74
2023/03/17 05:28:06;;;;;;;9.32;2.85;;;7.40;99.90;;;;;;5058999;28;20114;-76
2023/03/17 05:30:33;;;;;;;6.93;3.30;;;7.30;99.90;;;;;;5061522;28;20059;-76
2023/03/17 05:32:59;;;;;;;8.57;3.17;;;7.30;99.90;;;;;;5061377;28;20086;-76
2023/03/17 05:35:26;;;;;;;8.02;2.80;;;7.40;99.90;;;;;;5064464;28;20429;-73
2023/03/17 05:37:52;;;;;;;7.72;3.30;;;7.40;99.90;;;;;;5061035;28;20098;-73
2023/03/17 05:40:18;;;;;;;11.10;3.70;;;7.30;99.90;;;;;;5064043;28;20041;-74
2023/03/17 05:42:46;;;;;;;7.47;3.35;;;7.40;99.90;;;;;;5059438;28;20120;-74
2023/03/17 05:45:12;;;;;;;6.63;2.95;;;7.40;99.90;;;;;;5062158;28;20048;-75
2023/03/17 05:47:38;;;;;;;9.35;3.92;;;7.50;99.90;;;;;;5058509;28;20049;-74
2023/03/17 05:50:04;;;;;;;5.80;2.78;;;7.40;99.90;;;;;;5059541;28;20048;-75
2023/03/17 05:52:30;;;;;;;9.55;3.25;;;7.40;99.90;;;;;;5062760;28;20084;-74
2023/03/17 05:54:56;;;;;;;6.72;3.42;;;7.40;99.90;;;;;;5064966;28;20498;-76
2023/03/17 05:57:22;;;;;;;8.68;3.47;;;7.40;99.90;;;;;;5061668;28;20394;-76
2023/03/17 05:59:49;;;;;;;6.88;3.00;;;7.40;99.90;;;;;;5062133;28;20520;-75
2023/03/17 06:02:15;;;;;;;8.48;3.20;;;7.60;99.90;;;;;;5058959;28;20056;-76
2023/03/17 06:04:42;;;;;;;6.32;2.92;;;7.50;99.90;;;;;;5061654;28;20072;-73
2023/03/17 06:07:09;;;;;;;7.93;2.75;;;7.50;99.90;;;;;;5054185;28;20037;-74
2023/03/17 06:09:34;;;;;;;9.73;3.15;;;7.50;99.90;;;;;;5059524;28;20548;-74
2023/03/17 06:12:00;;;;;;;6.70;2.83;;;8.00;99.90;;;;;;5044465;28;20045;-74
2023/03/17 06:14:26;;;;;;;8.63;3.08;;;7.50;99.90;;;;;;5061536;28;20151;-75
2023/03/17 06:16:52;;;;;;;9.00;3.30;;;7.50;99.90;;;;;;5060191;28;20040;-74
2023/03/17 06:19:18;;;;;;;7.45;3.28;;;7.50;99.90;;;;;;5056961;28;20040;-76
2023/03/17 06:21:44;;;;;;;8.10;3.22;;;7.50;99.90;;;;;;5054038;28;20162;-76
2023/03/17 06:24:10;;;;;;;8.23;3.30;;;7.50;99.90;;;;;;5040030;28;20177;-75
2023/03/17 06:26:36;;;;;;;8.10;2.78;;;7.60;99.90;;;;;;5059103;28;20354;-74
2023/03/17 06:29:07;;;;;;;9.82;3.72;;;7.60;99.90;;;;;;5058427;28;20053;-74
2023/03/17 06:31:34;;;;;;;7.10;2.80;;;7.70;99.90;;;;;;5053751;28;20076;-75
2023/03/17 06:34:00;;;;;;;10.13;3.47;;;7.60;99.90;;;;;;5059822;28;20438;-75
2023/03/17 06:36:26;;;;;;;9.13;3.03;;;7.70;99.90;;;;;;5039644;28;20033;-76
2023/03/17 06:38:52;;;;;;;8.02;2.88;;;7.70;99.90;;;;;;5056994;28;20040;-75
2023/03/17 06:41:18;;;;;;;6.25;2.90;;;7.70;99.90;;;;;;5057861;28;20731;-74
2023/03/17 06:43:44;;;;;;;7.13;3.35;;;7.70;99.90;;;;;;5057698;28;20052;-74
2023/03/17 06:46:10;;;;;;;6.70;3.17;;;7.60;99.90;;;;;;5057146;28;20033;-74
2023/03/17 06:48:35;;;;;;;6.45;3.05;;;7.70;99.90;;;;;;5084933;28;20041;-75
2023/03/17 06:51:01;;;;;;;7.45;2.95;;;7.70;99.90;;;;;;5037555;28;20052;-74
2023/03/17 06:53:27;;;;;;;7.93;3.30;;;7.60;99.90;;;;;;5053051;28;20135;-75
2023/03/17 06:55:53;;;;;;;7.22;3.05;;;7.60;99.90;;;;;;5036651;28;20037;-75
2023/03/17 06:58:19;;;;;;;7.78;3.03;;;7.70;99.90;;;;;;5049277;28;20037;-75
2023/03/17 07:00:47;;;;;;;8.43;3.30;;;7.70;99.90;;;;;;5041702;28;20052;-75
2023/03/17 07:03:15;;;;;;;8.20;3.00;;;7.70;99.90;;;;;;5045387;28;20064;-75
2023/03/17 07:05:41;;;;;;;8.30;3.50;;;7.70;99.90;;;;;;5047907;28;20045;-76
2023/03/17 07:08:07;;;;;;;7.18;2.95;;;7.70;99.90;;;;;;5040652;28;20048;-75
2023/03/17 07:10:34;;;;;;;12.38;3.30;;;7.90;99.90;;;;;;5028535;28;20060;-74
2023/03/17 07:13:01;;;;;;;7.80;3.08;;;7.80;99.90;;;;;;5025156;28;20091;-74
2023/03/17 07:15:30;;;;;;;8.40;3.40;;;7.70;99.90;;;;;;5042360;28;20133;-75
2023/03/17 07:17:56;;;;;;;7.55;3.30;;;7.70;99.90;;;;;;5071657;27;20132;-75
2023/03/17 07:20:22;;;;;;;8.68;3.42;;;7.80;99.90;;;;;;5027746;28;22064;-74
2023/03/17 07:22:47;;;;;;;8.23;3.20;;;7.80;99.90;;;;;;5048693;28;20605;-74
2023/03/17 07:25:14;;;;;;;6.03;2.90;;;7.80;99.90;;;;;;5058749;28;20048;-75
2023/03/17 07:27:40;;;;;;;7.63;3.20;;;7.80;99.90;;;;;;5029720;28;21551;-75
2023/03/17 07:30:06;;;;;;;7.82;3.00;;;7.90;99.90;;;;;;5051675;28;20543;-75
2023/03/17 07:32:34;;;;;;;6.88;3.20;;;8.00;99.90;;;;;;5037063;28;20044;-75
2023/03/17 07:34:59;;;;;;;7.10;3.10;;;8.10;99.90;;;;;;5049448;28;20723;-76
2023/03/17 07:37:25;;;;;;;6.57;2.75;;;8.20;99.90;;;;;;5057359;28;20041;-77
2023/03/17 07:39:51;;;;;;;8.50;3.33;;;8.30;99.90;;;;;;5053165;28;20048;-76
2023/03/17 07:42:17;;;;;;;8.43;3.30;;;8.50;99.90;;;;;;5049576;28;20685;-77
2023/03/17 07:44:43;;;;;;;6.80;3.20;;;8.70;99.90;;;;;;5036747;28;20143;-75
2023/03/17 07:47:10;;;;;;;8.00;3.22;;;8.80;99.90;;;;;;5039225;28;20297;-75
2023/03/17 07:49:37;;;;;;;7.53;3.22;;;8.90;99.90;;;;;;5055417;28;20037;-76
2023/03/17 07:52:03;;;;;;;9.07;3.50;;;9.00;99.90;;;;;;5055533;28;20532;-76
2023/03/17 07:54:29;;;;;;;8.23;3.28;;;9.10;99.90;;;;;;5037442;28;20036;-77
2023/03/17 07:56:55;;;;;;;7.13;3.10;;;9.10;99.90;;;;;;5054124;28;20041;-75
2023/03/17 07:59:22;;;;;;;9.18;3.75;;;9.10;99.90;;;;;;5053494;28;20519;-75
2023/03/17 08:01:47;;;;;;;7.35;3.03;;;9.20;99.90;;;;;;5053714;28;20155;-75
2023/03/17 08:04:14;;;;;;;7.18;2.90;;;9.20;99.90;;;;;;5055720;28;20044;-75
2023/03/17 08:06:41;;;;;;;8.57;3.10;;;9.00;99.90;;;;;;5038168;28;20109;-76
2023/03/17 08:09:10;;;;;;;7.45;3.42;;;9.20;99.90;;;;;;5038877;28;20047;-75
2023/03/17 08:11:36;;;;;;;12.77;3.38;;;9.30;99.90;;;;;;5049186;28;20055;-75
2023/03/17 08:14:03;;;;;;;7.57;3.65;;;9.30;99.90;;;;;;5031448;28;20273;-75
2023/03/17 08:16:29;;;;;;;8.82;3.88;;;9.30;99.90;;;;;;5053597;28;20033;-75
2023/03/17 08:18:57;;;;;;;7.47;3.58;;;9.30;99.90;;;;;;5053718;28;20054;-76
2023/03/17 08:21:25;;;;;;;8.48;3.50;;;9.30;99.90;;;;;;5055477;28;20099;-75
2023/03/17 08:23:54;;;;;;;9.77;3.70;;;9.20;99.90;;;;;;5057059;28;20766;-77
2023/03/17 08:26:21;;;;;;;7.43;3.38;;;9.20;99.90;;;;;;5054913;28;20137;-76
2023/03/17 08:28:49;;;;;;;7.45;3.33;;;9.20;99.90;;;;;;5034976;28;20048;-76
2023/03/17 08:31:20;;;;;;;8.00;3.60;;;9.20;99.90;;;;;;5034935;28;20048;-76
2023/03/17 08:33:50;;;;;;;6.28;3.22;;;9.20;99.90;;;;;;5055812;28;20044;-75
2023/03/17 08:36:17;;;;;;;8.07;3.30;;;9.20;99.90;;;;;;5058365;28;20127;-76
2023/03/17 08:38:47;;;;;;;7.68;3.45;;;9.20;99.90;;;;;;5056341;28;20586;-75
2023/03/17 08:41:17;;;;;;;8.20;3.40;;;9.20;99.90;;;;;;5050780;28;20048;-75
2023/03/17 08:43:45;;;;;;;8.07;3.42;;;9.20;99.90;;;;;;5051739;28;20037;-76
2023/03/17 08:46:24;;;;;;;7.90;3.30;;;9.30;99.90;;;;;;5056556;28;20097;-75
2023/03/17 08:48:53;;;;;;;8.98;3.20;;;9.30;99.90;;;;;;5055848;28;20095;-76
2023/03/17 08:51:19;;;;;;;9.07;3.42;;;9.30;99.90;;;;;;5053617;28;20055;-75
2023/03/17 08:53:47;;;;;;;7.43;3.08;;;9.30;99.90;;;;;;5056195;28;20045;-74
2023/03/17 08:56:14;;;;;;;9.25;3.47;;;9.40;99.90;;;;;;5054669;28;20807;-75
2023/03/17 08:58:41;;;;;;;6.53;3.22;;;9.40;99.90;;;;;;5052734;28;20456;-75
2023/03/17 09:01:09;;;;;;;8.02;3.25;;;9.40;99.90;;;;;;5056101;28;20611;-75
2023/03/17 09:03:37;;;;;;;7.22;3.30;;;9.50;99.90;;;;;;5051916;28;20052;-76
2023/03/17 09:06:05;;;;;;;8.18;3.70;;;9.50;99.90;;;;;;5057620;28;20048;-76
2023/03/17 09:08:32;;;;;;;9.57;4.13;;;9.60;99.90;;;;;;5068452;28;20044;-77
2023/03/17 09:11:00;;;;;;;8.40;3.50;;;9.70;99.90;;;;;;5054549;28;20612;-77
2023/03/17 09:13:26;;;;;;;7.05;3.15;;;9.80;99.90;;;;;;5056743;28;20052;-74
2023/03/17 09:15:52;;;;;;;7.32;3.10;;;9.90;99.90;;;;;;5057416;28;20528;-76
2023/03/17 09:18:18;;;;;;;8.13;3.50;;;10.10;99.90;;;;;;5059578;28;20040;-76
2023/03/17 09:20:44;;;;;;;8.13;3.05;;;10.30;99.90;;;;;;5055107;28;20496;-76
2023/03/17 09:23:11;;;;;;;7.13;3.42;;;10.40;99.90;;;;;;5055999;28;20245;-77
2023/03/17 09:25:40;;;;;;;6.53;2.90;;;10.50;99.90;;;;;;5061292;28;20036;-77
2023/03/17 09:28:08;;;;;;;8.75;3.15;;;10.60;99.90;;;;;;5060605;28;20127;-75
2023/03/17 09:30:34;;;;;;;7.90;3.33;;;10.80;99.90;;;;;;5065327;28;20052;-77
2023/03/17 09:33:00;;;;;;;6.18;2.92;;;10.90;99.90;;;;;;5057893;28;20048;-76
2023/03/17 09:35:27;;;;;;;8.43;2.88;;;11.10;99.90;;;;;;5040698;28;20646;-77
2023/03/17 09:37:53;;;;;;;6.55;3.00;;;11.20;99.90;;;;;;5044759;28;20405;-75
2023/03/17 09:40:26;;;;;;;6.43;3.30;;;11.30;99.90;;;;;;5059619;28;20052;-76
2023/03/17 09:43:10;;;;;;;8.00;3.38;;;11.40;99.90;;;;;;5043439;28;20114;-75
2023/03/17 09:45:39;;;;;;;10.23;3.53;;;11.50;99.90;;;;;;5060916;28;20048;-76
2023/03/17 09:48:20;;;;;;;8.05;3.53;;;11.50;99.90;;;;;;5041386;28;20055;-76
2023/03/17 09:50:52;;;;;;;7.45;3.40;;;11.60;99.90;;;;;;5053721;28;20059;-77
2023/03/17 09:53:26;;;;;;;8.30;3.20;;;11.70;99.90;;;;;;5059177;28;20146;-76
2023/03/17 09:55:57;;;;;;;7.78;3.03;;;11.80;99.90;;;;;;5041991;28;20044;-77
2023/03/17 09:58:30;;;;;;;9.10;3.20;;;11.90;99.90;;;;;;5087992;28;20407;-77
2023/03/17 10:00:56;;;;;;;5.97;2.90;;;11.90;99.90;;;;;;5042965;28;20620;-77
2023/03/17 10:03:24;;;;;;;9.00;3.42;;;12.00;99.90;;;;;;5060906;28;20078;-76
2023/03/17 10:05:50;;;;;;;7.18;3.50;;;11.90;99.90;;;;;;5042919;28;20402;-76
2023/03/17 10:08:28;;;;;;;8.45;3.80;;;12.00;99.90;;;;;;5059315;28;20072;-76
2023/03/17 10:11:08;;;;;;;7.28;3.15;;;12.00;99.90;;;;;;5087188;28;20044;-75
2023/03/17 10:13:45;;;;;;;10.60;3.45;;;12.10;99.90;;;;;;5061895;28;21411;-75
2023/03/17 10:16:17;;;;;;;6.03;3.03;;;12.20;99.90;;;;;;5057180;28;20052;-77
2023/03/17 10:18:45;;;;;;;;;;;12.30;99.90;;;;;;5059226;28;20053;-77
2023/03/17 10:21:16;;;;;;;9.35;3.58;;;12.30;99.90;;;;;;5056318;28;19970;-76
2023/03/17 10:23:42;;;;;;;9.18;3.80;;;12.30;99.90;;;;;;5076314;28;20048;-77
2023/03/17 10:26:20;;;;;;;8.23;3.40;;;12.30;99.90;;;;;;5041888;28;20062;-77
2023/03/17 10:28:45;;;;;;;7.43;3.38;;;12.40;99.90;;;;;;5044212;28;20052;-77
2023/03/17 10:31:17;;;;;;;7.30;3.47;;;12.50;99.90;;;;;;5059353;28;20045;-77
2023/03/17 10:33:48;;;;;;;9.20;3.10;;;12.50;99.90;;;;;;5059927;28;20877;-77
2023/03/17 10:36:16;;;;;;;7.37;3.23;;;12.70;99.90;;;;;;5040297;28;20964;-78
2023/03/17 10:38:53;;;;;;;9.18;3.88;;;12.70;99.90;;;;;;5057295;28;20337;-77
2023/03/17 10:41:19;;;;;;;10.18;3.85;;;12.70;99.90;;;;;;5058952;28;20635;-77
2023/03/17 10:43:49;;;;;;;10.07;3.53;;;12.80;99.90;;;;;;5060758;28;20399;-77
2023/03/17 10:46:26;;;;;;;9.88;4.22;;;12.90;99.90;;;;;;5058898;28;20086;-78
2023/03/17 10:49:02;;;;;;;8.55;3.90;;;13.00;99.90;;;;;;5056839;28;21108;-77
2023/03/17 10:51:34;;;;;;;9.70;3.38;;;13.00;99.90;;;;;;5042650;28;20044;-77
2023/03/17 10:54:06;;;;;;;11.77;3.83;;;13.20;99.90;;;;;;5056660;28;20068;-78
2023/03/17 10:56:35;;;;;;;7.60;3.30;;;13.30;99.90;;;;;;5059157;28;20102;-77
2023/03/17 10:59:07;;;;;;;7.63;3.65;;;13.40;99.90;;;;;;5058821;28;20087;-77
2023/03/17 11:01:42;;;;;;;8.85;3.90;;;13.40;99.90;;;;;;5042214;28;20052;-77
2023/03/17 11:04:30;;;;;;;7.85;3.92;;;13.50;99.90;;;;;;5058683;28;20413;-76
2023/03/17 11:06:59;;;;;;;7.55;3.90;;;13.60;99.90;;;;;;5057571;28;20054;-79
2023/03/17 11:09:28;;;;;;;6.88;3.72;;;13.60;99.90;;;;;;5037503;28;20056;-77
2023/03/17 11:12:22;;;;;;;8.75;4.28;;;13.50;99.90;;;;;;5054530;28;20052;-77
2023/03/17 11:14:48;;;;;;;8.50;3.80;;;13.70;99.90;;;;;;5046109;28;20056;-78
2023/03/17 11:17:32;;;;;;;9.63;4.05;;;13.70;99.90;;;;;;5057061;28;20036;-78
2023/03/17 11:20:17;;;;;;;12.00;4.55;;;13.80;99.90;;;;;;5055697;28;20055;-78
2023/03/17 11:22:53;;;;;;;8.25;3.97;;;13.80;99.90;;;;;;5057994;28;20047;-77
2023/03/17 11:25:22;;;;;;;10.65;4.05;;;13.80;99.90;;;;;;5058761;28;20044;-78
2023/03/17 11:28:10;;;;;;;8.27;4.05;;;13.90;99.90;;;;;;5057693;28;20795;-77
2023/03/17 11:30:43;;;;;;;8.82;3.92;;;13.90;99.90;;;;;;5055775;28;20477;-76
2023/03/17 11:33:32;;;;;;;12.15;4.45;;;14.00;99.90;;;;;;5057354;28;20055;-77
2023/03/17 11:36:19;;;;;;;10.90;4.22;;;14.00;99.90;;;;;;5054244;28;20064;-76
2023/03/17 11:38:57;;;;;;;10.05;4.22;;;14.10;99.90;;;;;;5038180;28;20060;-76
2023/03/17 11:41:53;;;;;;;9.68;4.70;;;14.20;99.90;;;;;;5068638;28;20051;-76
2023/03/17 11:44:46;;;;;;;8.00;4.78;;;14.30;99.90;;;;;;5048205;28;20105;-76
2023/03/17 11:47:45;;;;;;;10.50;5.35;;;14.30;99.90;;;;;;5059578;28;20029;-76
2023/03/17 11:50:19;;;;;;;9.80;4.40;;;14.40;99.90;;;;;;5072870;28;20052;-76
2023/03/17 11:52:53;;;;;;;10.90;5.00;;;14.50;99.90;;;;;;5068974;28;20095;-77
2023/03/17 11:55:29;;;;;;;12.48;5.22;;;14.60;99.90;;;;;;5056199;28;20060;-77
2023/03/17 11:58:08;;;;;;;14.20;5.43;;;14.60;99.90;;;;;;5092655;28;20037;-77
2023/03/17 12:00:39;;;;;;;13.18;5.30;;;14.70;99.90;;;;;;5059402;28;20048;-77
2023/03/17 12:03:37;;;;;;;10.18;5.43;;;14.70;99.90;;;;;;5059017;28;20048;-77
2023/03/17 12:06:10;;;;;;;12.27;5.50;;;14.80;99.90;;;;;;5043473;28;20076;-76
2023/03/17 12:09:02;;;;;;;12.55;5.35;;;14.80;99.90;;;;;;5058054;28;20705;-77
2023/03/17 12:11:32;;;;;;;9.40;5.22;;;14.90;99.90;;;;;;5024108;28;20094;-77
2023/03/17 12:14:08;;;;;;;10.23;5.07;;;15.00;99.90;;;;;;5060647;28;20048;-77
2023/03/17 12:16:39;;;;;;;9.77;4.95;;;15.10;99.90;;;;;;5063385;28;20128;-77
2023/03/17 12:19:18;;;;;;;10.63;5.35;;;15.10;99.90;;;;;;5063415;28;20040;-78
2023/03/17 12:21:58;;;;;;;9.50;4.90;;;15.20;99.90;;;;;;5058236;28;20070;-78
2023/03/17 12:24:46;;;;;;;9.65;4.63;;;15.20;99.90;;;;;;5062639;28;20441;-78
2023/03/17 12:27:32;;;;;;;11.73;5.38;;;15.30;99.90;;;;;;5093224;28;20044;-78
2023/03/17 12:30:29;;;;;;;8.98;5.15;;;15.30;99.90;;;;;;5059467;28;20040;-76
2023/03/17 12:33:17;;;;;;;11.32;5.22;;;15.30;99.90;;;;;;5021869;28;20053;-75
2023/03/17 12:35:42;;;;;;;10.18;5.35;;;15.30;99.90;;;;;;5061725;28;20434;-72
2023/03/17 12:38:28;;;;;;;9.48;5.32;;;15.40;99.90;;;;;;5054186;28;20071;-72
2023/03/17 12:41:13;;;;;;;12.43;5.05;;;15.40;99.90;;;;;;5032498;28;20048;-70
2023/03/17 12:44:04;;;;;;;7.60;4.43;;;15.40;99.90;;;;;;5060977;28;20036;-70
2023/03/17 12:46:40;;;;;;;11.13;5.35;;;15.40;99.90;;;;;;5063612;28;20421;-71
2023/03/17 12:49:36;;;;;;;9.82;5.75;;;15.50;99.90;;;;;;5064322;28;20045;-72
2023/03/17 12:52:12;;;;;;;10.05;4.75;;;15.50;99.90;;;;;;5041375;28;20053;-73
2023/03/17 12:54:43;;;;;;;11.57;5.85;;;15.50;99.90;;;;;;5064542;28;20040;-72
2023/03/17 12:57:28;;;;;;;15.10;5.68;;;15.60;99.90;;;;;;5063082;28;20758;-73
2023/03/17 13:00:14;;;;;;;12.55;5.50;;;15.70;99.90;;;;;;5046026;28;20170;-73
2023/03/17 13:02:44;;;;;;;9.38;5.28;;;15.70;99.90;;;;;;5064109;28;20156;-73
2023/03/17 13:05:15;;;;;;;12.35;5.28;;;15.80;99.90;;;;;;5062572;28;20055;-73
2023/03/17 13:07:47;;;;;;;;;;;15.80;99.90;;;;;;5064333;28;20701;-73